Show Low, AZ (85901)

10:06 PM MST am 22. Oktober 2014 (GMT -0700)
Torreon | Change Station
CLOSE
Current Station
Persönliche Wetterstationen
Location: Show Low, AZ
Höhe: 6391 ft
Wetterstationen in der Umgebung

Höhe 6391 ft 34.25 °N, 110.09 °W | Updated 5 minutes ago

Heiter
Heiter
45.5 °F
gefühlte 46 °F
N
0.0
Wind Wechselnd Wind aus Südwest
Gusts 0.0 mph

Heute
Max. -- | schwach -- °F
--% Regenrisiko
Gestern
Max. -- | schwach -- °F
Precip. -- inch
6:31 AM 5:37 PM
Letztes Viertel, 1% visible
Druck 30.29 inch
Sichtweite 10.0 Meilen
Wolken Heiter
Windchill 46 °F
Taupunkt 42 °F
Feuchtigkeit 88%
Regen 0.00 inch
Schneehöhe Nicht verfügbar..
UV 0 von 12
Pollen 4.10 von 12
Luftqualität Nicht verfügbar..
Flu Activity No Activity
METAR KSOW 230455Z AUTO 17004KT 10SM CLR 09/04 A3029 RMK AO2

More Conditions Fewer Conditions

Druck 30.29 inch
Sichtweite 10.0 Meilen
Wolken Heiter
Windchill 46 °F
Taupunkt 42 °F
Feuchtigkeit 88%
Regen 0.00 inch
Schneehöhe Nicht verfügbar..
UV 0 von 12
Pollen 4.10 von 12
Luftqualität Nicht verfügbar..
Flu Activity No Activity
METAR KSOW 230455Z AUTO 17004KT 10SM CLR 09/04 A3029 RMK AO2

More Conditions Fewer Conditions

10-Day Weather Forecast

Almanac

Astronomie

Oct. 22, 2014 Aufgang Untergang
Genaue Zeit 06:31 MST 17:37 MST
Bürgerliche Dämmerung 06:05 MST 18:03 MST
Nautische Dämmerung 05:36 MST 18:32 MST
Astronomische Dämmerung 05:07 MST 19:01 MST
Mond 05:19 MST (10/22) 17:04 MST (10/22)
Länge des sichtbaren Lichts 11h 57m
Tageslänge
11h 06m
Tomorrow will be 1m 59s shorter.
Letztes Viertel, 1% of the Moon is Illuminated
Okt 23
Letztes Viertel
Okt 23
Neu
Okt 30
Erstes Viertel
Nov 6
Vollmond
Nov 14
Letztes Viertel

Gestrige Extrema

State Highs State Lows

Community

WunderPhotos

Upload Photos

1,764,169 Fotos hochgeladen!

Nearby

Schneehöhe

Station Depth Höhe
Baldy 2 in 9125 ft
Heber 0 in 7640 ft
Maverick Fork 1 in 9200 ft
Wildcat 0 in 7850 ft
Promontory 0 in 7930 ft

Erdbebenaktivität

Stadt Distance Mag. Time & Date
No recent earthquake activity has been reported nearby.
Minimum magnitude displayed is 2.5.

küstennahe Wassertemperaturen

Ort Temperatur
Kein Stationsbericht

Wetterstationen in der Umgebung